KIMT/IMT METAR and TAF weather

Enter ICAO airport designator
Station Type Date Time Source
KIMT METAR 2023/12/10 21:54 UTC NOAA

KIMT 102154Z AUTO 32006KT 5SM -SN BR OVC019 M03/M06 A2998 RMK AO2 SNB49 SLP168 P0000 I1001 T10331056 $


Station Type Date Time Source
KIMT Decoded METAR 2023/12/10 21:54 UTC NOAA

IRON MOUNTAIN FORD AIRPORT, MI, United States (KIMT) 45-49N 88-07W 349M
Dec 10, 2023 - 04:54 PM EST / 2023.12.10 2154 UTC
Wind: from the NW (320 degrees) at 7 MPH (6 KT):0
Visibility: 5 mile(s):0
Sky conditions: overcast
Weather: light snow; mist
Precipitation last hour: A trace
Temperature: 26.1 F (-3.3 C)
Windchill: 17 F (-8 C):1
Dew Point: 21.9 F (-5.6 C)
Relative Humidity: 84%
Pressure (altimeter): 29.98 in. Hg (1015 hPa)
ob: KIMT 102154Z AUTO 32006KT 5SM -SN BR OVC019 M03/M06 A2998 RMK AO2 SNB49 SLP168 P0000 I1001 T10331056
cycle: 22

Station Type Date Time Source
KIMT TAF UTC NOAA

Error!

Example: see airport list